Flight Track Log - Related Links

Times and Time Zones

All times are in EDT time to prevent confusion due to time zone crossing. See the FLG4115 flight status page for this flight to view local times or setup timezone preferences in your user account.

Time Position Orientation Groundspeed Altitude Reporting Facility
EDT Latitude Longitude Course Direction KTS MPH feet Rate Location/Type
Wed 07:43:03 AM 42.2272 -83.3369 102° East 148 170 1,500  Level Cleveland Center
Wed 07:44:10 AM 42.2658 -83.2881 43° Northeast 229 264 4,300 2,164 Climbing Cleveland Center
Wed 07:45:00 AM 42.1450 -82.8813 101° East  Level FlightAware Approximate
Wed 07:45:05 AM 42.3156 -83.2144 48° Northeast 302 348 5,900  Level Cleveland Center
Wed 07:46:00 AM 42.1143 -82.7262 98° East  Level FlightAware Approximate
Wed 07:46:06 AM 42.3011 -83.1128 101° East 291 335 8,700  Level Cleveland Center
Wed 07:47:00 AM 42.0947 -82.5675 114° Southeast  Level FlightAware Approximate
Wed 07:47:14 AM 42.2617 -83.0017 116° Southeast 334 384 10,300  Level Cleveland Center
Wed 07:48:00 AM 42.0745 -82.4105 102° East  Level FlightAware Approximate
Wed 07:48:14 AM 42.2206 -82.8794 114° Southeast 373 429 11,700  Level Cleveland Center
Wed 07:49:14 AM 42.1792 -82.7547 114° Southeast 373 429 13,200 1,550 Climbing Cleveland Center
Wed 07:50:14 AM 42.1336 -82.6272 116° Southeast 373 429 14,800 1,550 Climbing Cleveland Center
Wed 07:51:14 AM 42.0900 -82.4969 114° Southeast 373 429 16,300 1,450 Climbing Cleveland Center
Wed 07:52:14 AM 42.0672 -82.3508 102° East 380 437 17,700 1,750 Climbing Cleveland Center
Wed 07:53:14 AM 42.0464 -82.2022 101° East 391 450 19,800 1,800 Climbing Cleveland Center
Wed 07:54:14 AM 42.0108 -82.0614 109° East 403 464 21,300 1,300 Climbing Cleveland Center
Wed 07:55:14 AM 41.9264 -81.9758 143° Southeast 374 430 22,400 1,300 Climbing Cleveland Center
Wed 07:56:14 AM 41.8378 -81.8875 143° Southeast 389 448 23,900 1,400 Climbing Cleveland Center
Wed 07:57:14 AM 41.7469 -81.8050 146° Southeast 394 453 25,200 1,250 Climbing Cleveland Center
Wed 07:58:14 AM 41.6500 -81.7142 145° Southeast 394 453 26,400 1,050 Climbing Cleveland Center
Wed 07:59:14 AM 41.5611 -81.6267 144° Southeast 394 453 27,300 800 Climbing Cleveland Center
Wed 08:00:14 AM 41.4661 -81.5392 145° Southeast 404 465 28,000 600 Climbing Cleveland Center
Wed 08:01:14 AM 41.3708 -81.4464 144° Southeast 415 478 28,500 500 Climbing Cleveland Center
Wed 08:02:14 AM 41.2717 -81.3539 145° Southeast 428 493 29,000 250 Climbing Cleveland Center
Wed 08:03:14 AM 41.1803 -81.2700 145° Southeast 439 505 29,000  Level Cleveland Center
Wed 08:04:14 AM 41.0725 -81.1892 151° Southeast 439 505 29,000  Level Cleveland Center
Wed 08:05:14 AM 40.9581 -81.1494 165° South 433 498 29,000  Level Cleveland Center
Wed 08:06:14 AM 40.8478 -81.0772 154° Southeast 433 498 29,000  Level Cleveland Center
Wed 08:07:14 AM 40.7378 -80.9667 143° Southeast 444 511 29,000  Level Cleveland Center
Wed 08:08:14 AM 40.6358 -80.8703 144° Southeast 449 517 29,000  Level Cleveland Center
Wed 08:09:14 AM 40.5319 -80.7717 144° Southeast 454 522 29,000  Level Cleveland Center
Wed 08:10:14 AM 40.4297 -80.6867 148° Southeast 449 517 29,000  Level Cleveland Center
Wed 08:11:14 AM 40.3172 -80.6375 162° South 425 489 29,000  Level Cleveland Center
Wed 08:12:14 AM 40.2047 -80.5831 160° South 430 495 29,000  Level Cleveland Center
Wed 08:13:14 AM 40.0900 -80.5342 162° South 435 501 29,000  Level Cleveland Center
Wed 08:14:14 AM 39.9775 -80.4856 162° South 435 501 29,000  Level Cleveland Center
Wed 08:15:14 AM 39.8608 -80.4344 161° South 435 501 29,000  Level Cleveland Center
Wed 08:16:14 AM 39.7419 -80.3833 162° South 448 516 29,000  Level Cleveland Center
Wed 08:17:14 AM 39.6292 -80.3269 159° South 448 516 29,000  Level Cleveland Center
Wed 08:17:31 AM 39.6108 -80.3083 142° Southeast 431 496 29,000  Level Washington Center
Wed 08:18:31 AM 39.5692 -80.1494 109° East 406 467 29,000  Level Washington Center
Wed 08:19:31 AM 39.5508 -79.9706 98° East 427 491 29,000  Level Washington Center
Wed 08:20:31 AM 39.5300 -79.7972 99° East 463 533 29,000 -767 Level Washington Center
Wed 08:22:31 AM 39.4872 -79.4531 99° East 482 555 26,700 -1,267 Descending Washington Center
Wed 08:23:31 AM 39.4589 -79.2903 103° East 475 547 25,200 -1,400 Descending Washington Center
Wed 08:24:31 AM 39.4225 -79.1139 105° East 465 535 23,900 -1,700 Descending Washington Center
Wed 08:25:31 AM 39.3978 -78.9647 102° East 449 517 21,800 -2,450 Descending Washington Center
Wed 08:26:31 AM 39.3703 -78.8214 104° East 423 487 19,000 -2,600 Descending Washington Center
Wed 08:27:31 AM 39.3467 -78.6861 103° East 410 472 16,600 -2,450 Descending Washington Center
Wed 08:28:31 AM 39.3231 -78.5508 103° East 395 455 14,100 -2,200 Descending Washington Center
Wed 08:29:31 AM 39.2953 -78.4131 105° East 390 449 12,200 -1,450 Descending Washington Center
Wed 08:30:31 AM 39.2581 -78.2989 113° Southeast 369 425 11,200 -600 Descending Washington Center
Wed 08:31:31 AM 39.2608 -78.1836 88° East 332 382 11,000 -200 Descending Washington Center
Wed 08:32:31 AM 39.2672 -78.0686 86° East 318 366 10,800 -800 Descending Washington Center
Wed 08:33:31 AM 39.2739 -77.9536 86° East 318 366 9,400 -1,500 Descending Washington Center
Wed 08:34:31 AM 39.2822 -77.8386 85° East 318 366 7,800 -1,550 Descending Washington Center
Wed 08:35:31 AM 39.2903 -77.7369 84° East 306 352 6,300 -1,450 Descending Washington Center
Wed 08:36:31 AM 39.2753 -77.6400 101° East 283 326 4,900 -1,200 Descending Washington Center
Wed 08:37:31 AM 39.2539 -77.5428 106° East 278 320 3,900 -900 Descending Washington Center
Wed 08:38:31 AM 39.2178 -77.4589 119° Southeast 278 320 3,100 -446 Descending Washington Center
Wed 08:39:32 AM 39.1667 -77.4500 172° South 177 204 3,000 -98 Descending Potomac TRACON

Login

Don't have an account? Register now (free) for customized features, flight alerts, and more!